Terminal Aerodrome Forecast
Issued by NWS Twin Cities, MN

Home | Current Version | Previous Version | Graphics & Text | Print | Product List | Glossary On
Versions: 1 2 3 4 5 6 7 8 9 10 11 12 13 14 15 16 17 18 19 20 21
000
FTUS43 KMPX 252337
TAFEAU
TAF
KEAU 252337Z 2600/2624 13008KT 6SM BR OVC040
     FM260100 15007KT 6SM BR SCT020
     FM260700 18003KT 4SM BR SCT007
      TEMPO 2608/2612 1SM BR BKN007
     FM261200 22007KT P6SM SCT050
     FM261800 23008KT P6SM FEW250=

USA.gov is the U.S. government's official web portal to all federal, state and local government web resources and services.